Rutland, IL (61358)

8:05 PM CST on January 16, 2017 (GMT -0600)
MD9553 | | Change Station
Active Advisory: Dense Fog Advisory

Elev 770 ft 40.89 °N, 89.03 °W | Updated 16 minutes ago

Overcast
Overcast
37.0 °F
Feels Like 37 °F
N
0.0
Wind Variable Wind from East
Gusts 0.0 mph

Today
High -- | Low -- °F
--% Chance of Precip.
Yesterday
High -- | Low -- °F
Precip. -- in
Pressure 29.90 in
Visibility 2.0 miles
Clouds Overcast 300 ft
Windchill 37 °F
Dew Point 36 °F
Humidity 97%
Rainfall 0.45 in
Snow Depth Not available.
7:18 AM 4:54 PM
Waning Gibbous, 76% visible
METAR KC75 170155Z AUTO 10003KT 2SM BR OVC003 03/03 A2990 RMK AO2 LTG DSNT SE T00280028
Pressure 29.90 in
Visibility 2.0 miles
Clouds Overcast 300 ft
Windchill 37 °F
Dew Point 36 °F
Humidity 97%
Rainfall 0.45 in
Snow Depth Not available.
7:18 AM 4:54 PM
Waning Gibbous, 76% visible
METAR KC75 170155Z AUTO 10003KT 2SM BR OVC003 03/03 A2990 RMK AO2 LTG DSNT SE T00280028

Get Your Daily Forecast Email!

Thanks for signing up!

Be on the lookout for a verification email in your inbox.

You'll start receiving the daily forecast at 8 AM.

×

10-Day Weather Forecast

Almanac

Astronomy

Jan. 16, 2017 Rise Set
Actual Time
Civil Twilight
Nautical Twilight
Astronomical Twilight
Moon
Length of Visible Light
Length of Day
Tomorrow will be .
, % of the Moon is Illuminated

Today's Extremes

State Highs State Lows

Community

WunderPhotos

Upload Photos

1,962,540 photos uploaded!

WunderBlog® & News

Nearby

Air Quality

  Air Quality AQ Index Pollutant
Not available.

Snow Depth

Station Depth Elevation

Earthquake Activity

City Distance Mag. Time & Date
Minimum magnitude displayed is 2.5.

Coastal Water Temperatures

Place Temperature

Stations

Nearby Weather Stations

Station Location Temp. Windchill Dew Point Humidity Wind Precip. Elev Updated Type
                   

Watches & Warnings

Dense Fog Advisory
Issued: 4:30 PM CST Jan. 16, 2017 – National Weather Service

... Dense fog advisory in effect until midnight CST tonight...

The National Weather Service in Chicago has issued a dense fog
advisory... which is in effect until midnight CST tonight.

* Visibility... quarter mile or less.

* Impacts... low visibilities will make travel hazardous across
the region.

Precautionary/preparedness actions...

A dense fog advisory means visibilities will frequently be
reduced to less than one quarter mile. If driving... slow down...
use your headlights... and leave plenty of distance ahead of you.